Time;durP1;ratioP1;P1;durP2;ratioP2;P2;SDS_P1;SDS_P2;PMS_P1;PMS_P2;Temp;Humidity;BMP_temperature;BMP_pressure;BME280_temperature;BME280_humidity;BME280_pressure;Samples;Min_cycle;Max_cycle;Signal;HPM_P1;HPM_P2
2023/08/02 00:01:04;;;;;;;1.85;0.77;;;20.30;99.90;;;;;;5101096;28;20432;-76
2023/08/02 00:03:32;;;;;;;1.48;0.88;;;20.20;99.90;;;;;;5104227;28;20552;-76
2023/08/02 00:06:00;;;;;;;3.90;1.80;;;20.10;99.90;;;;;;5102270;28;20044;-78
2023/08/02 00:08:30;;;;;;;3.22;1.85;;;20.10;99.90;;;;;;5100412;28;20092;-76
2023/08/02 00:10:57;;;;;;;2.70;1.50;;;20.10;99.90;;;;;;5101717;28;20044;-78
2023/08/02 00:13:25;;;;;;;2.08;0.90;;;20.10;99.90;;;;;;5104185;28;20096;-77
2023/08/02 00:15:52;;;;;;;1.75;1.10;;;20.10;99.90;;;;;;5107631;28;20052;-78
2023/08/02 00:18:20;;;;;;;2.25;1.05;;;20.20;99.90;;;;;;5105206;28;20039;-76
2023/08/02 00:20:47;;;;;;;1.73;1.23;;;20.10;99.90;;;;;;5088986;28;20036;-74
2023/08/02 00:23:14;;;;;;;2.85;1.00;;;20.10;99.90;;;;;;5103956;28;20047;-76
2023/08/02 00:25:43;;;;;;;3.47;0.80;;;20.00;99.90;;;;;;5103083;28;20036;-76
2023/08/02 00:28:10;;;;;;;2.53;0.85;;;19.90;99.90;;;;;;5086522;28;20050;-75
2023/08/02 00:30:45;;;;;;;2.38;1.00;;;19.80;99.90;;;;;;5112385;28;20042;-75
2023/08/02 00:33:13;;;;;;;1.87;0.83;;;19.80;99.90;;;;;;5105968;28;20105;-77
2023/08/02 00:35:44;;;;;;;4.43;1.15;;;19.90;99.90;;;;;;5094796;28;20043;-77
2023/08/02 00:38:12;;;;;;;2.20;1.05;;;19.90;99.90;;;;;;5117257;28;20143;-77
2023/08/02 00:40:40;;;;;;;2.85;1.02;;;20.00;99.90;;;;;;5115562;28;20044;-78
2023/08/02 00:43:09;;;;;;;2.25;0.93;;;20.00;99.90;;;;;;5117310;28;20048;-77
2023/08/02 00:45:37;;;;;;;3.33;1.40;;;20.00;99.90;;;;;;5101466;28;20062;-76
2023/08/02 00:48:05;;;;;;;3.08;1.50;;;20.00;99.90;;;;;;5099620;28;20170;-74
2023/08/02 00:50:35;;;;;;;3.92;1.92;;;20.00;99.90;;;;;;5114271;28;20055;-75
2023/08/02 00:53:03;;;;;;;4.00;2.10;;;20.00;99.90;;;;;;5090242;28;20043;-77
2023/08/02 00:55:30;;;;;;;2.45;1.20;;;20.00;99.90;;;;;;5084922;28;20036;-78
2023/08/02 00:57:59;;;;;;;3.33;1.40;;;20.10;99.90;;;;;;5088046;28;20063;-77
2023/08/02 01:00:27;;;;;;;2.05;1.13;;;19.90;99.90;;;;;;5072981;28;20474;-76
2023/08/02 01:02:55;;;;;;;2.00;1.15;;;19.80;99.90;;;;;;5066040;28;20040;-74
2023/08/02 01:05:28;;;;;;;2.88;0.90;;;19.80;99.90;;;;;;5065024;28;20790;-76
2023/08/02 01:07:59;;;;;;;4.10;1.00;;;19.80;99.90;;;;;;5090294;28;20053;-77
2023/08/02 01:10:30;;;;;;;3.33;1.70;;;19.80;99.90;;;;;;5068543;28;20598;-75
2023/08/02 01:13:01;;;;;;;2.53;1.13;;;19.80;99.90;;;;;;5064786;28;20066;-77
2023/08/02 01:15:30;;;;;;;3.15;1.15;;;19.90;99.90;;;;;;5068227;28;20044;-76
2023/08/02 01:17:59;;;;;;;2.67;1.20;;;19.90;99.90;;;;;;5063483;28;20044;-75
2023/08/02 01:20:37;;;;;;;14.38;10.13;;;20.00;99.90;;;;;;5081975;28;20045;-77
2023/08/02 01:23:05;;;;;;;3.33;1.67;;;19.90;99.90;;;;;;5080969;28;20629;-75
2023/08/02 01:25:34;;;;;;;3.38;1.10;;;19.80;99.90;;;;;;5086758;28;20102;-77
2023/08/02 01:28:06;;;;;;;2.92;0.93;;;19.80;99.90;;;;;;5081323;28;20119;-77
2023/08/02 01:30:38;;;;;;;2.55;1.20;;;19.70;99.90;;;;;;5078335;28;20721;-77
2023/08/02 01:35:48;;;;;;;2.42;1.08;;;19.70;99.90;;;;;;4988770;28;20046;-77
2023/08/02 01:38:16;;;;;;;1.67;1.02;;;19.70;99.90;;;;;;5005163;28;20038;-77
2023/08/02 01:40:43;;;;;;;2.33;1.20;;;19.60;99.90;;;;;;4993367;28;20049;-75
2023/08/02 01:43:11;;;;;;;4.28;1.20;;;19.60;99.90;;;;;;5010549;28;20147;-73
2023/08/02 01:45:38;;;;;;;4.38;0.98;;;19.50;99.90;;;;;;4990905;28;20053;-74
2023/08/02 01:48:05;;;;;;;3.75;1.30;;;19.30;99.90;;;;;;4994043;28;20042;-75
2023/08/02 01:50:33;;;;;;;1.92;1.02;;;19.10;99.90;;;;;;5011949;28;20649;-77
2023/08/02 01:53:01;;;;;;;3.25;1.10;;;19.00;99.90;;;;;;4993867;28;20041;-77
2023/08/02 01:55:29;;;;;;;2.75;1.40;;;18.90;99.90;;;;;;4991455;28;20065;-77
2023/08/02 01:57:56;;;;;;;4.65;1.20;;;19.00;99.90;;;;;;4998336;28;20093;-77
2023/08/02 02:00:26;;;;;;;2.83;1.10;;;19.10;99.90;;;;;;4995900;28;20054;-74
2023/08/02 02:02:57;;;;;;;2.00;0.93;;;19.10;99.90;;;;;;5007031;28;20061;-74
2023/08/02 02:05:24;;;;;;;2.38;1.30;;;19.20;99.90;;;;;;5006727;28;20096;-76
2023/08/02 02:07:52;;;;;;;3.03;1.17;;;19.20;99.90;;;;;;4990053;28;20111;-76
2023/08/02 02:10:20;;;;;;;1.83;1.13;;;19.30;99.90;;;;;;4991328;28;20038;-75
2023/08/02 02:12:48;;;;;;;3.17;1.10;;;19.30;99.90;;;;;;5020915;28;20051;-76
2023/08/02 02:15:15;;;;;;;3.72;1.67;;;19.30;99.90;;;;;;5090379;28;20048;-77
2023/08/02 02:17:45;;;;;;;3.92;1.25;;;19.10;99.90;;;;;;5073208;28;20055;-79
2023/08/02 02:20:14;;;;;;;2.03;1.25;;;18.90;99.90;;;;;;5072735;28;20051;-77
2023/08/02 02:22:41;;;;;;;2.58;1.13;;;18.80;99.90;;;;;;5090651;28;20042;-78
2023/08/02 02:25:09;;;;;;;2.30;1.40;;;18.60;99.90;;;;;;5090588;28;20115;-77
2023/08/02 02:27:38;;;;;;;1.92;1.20;;;18.60;99.90;;;;;;5108558;28;20090;-78
2023/08/02 02:30:08;;;;;;;2.03;1.10;;;18.60;99.90;;;;;;5089345;28;20048;-76
2023/08/02 02:32:35;;;;;;;2.95;1.00;;;18.70;99.90;;;;;;5072944;28;20048;-77
2023/08/02 02:35:04;;;;;;;2.08;0.98;;;18.80;99.90;;;;;;5072958;28;20046;-75
2023/08/02 02:37:32;;;;;;;2.97;1.20;;;18.90;99.90;;;;;;5090291;28;20441;-78
2023/08/02 02:39:59;;;;;;;1.83;1.08;;;18.90;99.90;;;;;;5106007;28;20086;-75
2023/08/02 02:42:27;;;;;;;1.88;1.10;;;18.90;99.90;;;;;;5089791;28;20437;-80
2023/08/02 02:44:56;;;;;;;2.38;1.08;;;18.90;99.90;;;;;;5089065;28;20040;-78
2023/08/02 02:47:24;;;;;;;2.80;1.38;;;19.00;99.90;;;;;;5089991;28;20134;-78
2023/08/02 02:49:51;;;;;;;3.10;1.40;;;19.00;99.90;;;;;;5088047;28;20097;-78
2023/08/02 02:52:18;;;;;;;3.55;1.05;;;18.90;99.90;;;;;;5089879;28;20047;-76
2023/08/02 02:54:46;;;;;;;2.42;1.10;;;18.80;99.90;;;;;;5092128;28;20036;-77
2023/08/02 02:57:14;;;;;;;3.80;1.30;;;18.70;99.90;;;;;;5096384;28;20132;-75
2023/08/02 02:59:41;;;;;;;3.45;1.08;;;18.80;99.90;;;;;;5076249;28;20076;-77
2023/08/02 03:02:10;;;;;;;1.92;1.00;;;18.70;99.90;;;;;;5091920;28;20101;-75
2023/08/02 03:04:38;;;;;;;2.33;1.00;;;18.70;99.90;;;;;;5092156;28;20036;-78
2023/08/02 03:07:06;;;;;;;3.13;1.05;;;18.70;99.90;;;;;;5090127;28;20048;-76
2023/08/02 03:09:33;;;;;;;3.05;1.27;;;18.70;99.90;;;;;;5094570;28;20052;-77
2023/08/02 03:12:00;;;;;;;3.15;1.30;;;18.80;99.90;;;;;;5077456;28;20048;-76
2023/08/02 03:14:28;;;;;;;2.05;1.13;;;18.50;99.90;;;;;;5098775;28;20048;-76
2023/08/02 03:16:56;;;;;;;2.30;0.90;;;18.60;99.90;;;;;;5097132;28;20114;-79
2023/08/02 03:19:25;;;;;;;4.18;1.40;;;18.60;99.90;;;;;;5089660;28;20444;-76
2023/08/02 03:21:52;;;;;;;4.22;1.20;;;18.40;99.90;;;;;;5091086;28;20425;-77
2023/08/02 03:24:19;;;;;;;2.25;1.20;;;18.30;99.90;;;;;;5091211;28;20062;-76
2023/08/02 03:26:47;;;;;;;2.00;0.93;;;18.40;99.90;;;;;;5093362;28;20165;-74
2023/08/02 03:29:15;;;;;;;1.95;0.90;;;18.50;99.90;;;;;;5094963;28;20044;-75
2023/08/02 03:31:44;;;;;;;2.00;0.90;;;18.60;99.90;;;;;;5092815;28;20040;-77
2023/08/02 03:34:11;;;;;;;2.30;1.00;;;18.70;99.90;;;;;;5074006;28;20067;-77
2023/08/02 03:36:42;;;;;;;3.42;1.10;;;18.70;99.90;;;;;;5094222;28;20044;-76
2023/08/02 03:39:09;;;;;;;2.58;0.90;;;18.70;99.90;;;;;;5092612;28;20437;-76
2023/08/02 03:41:36;;;;;;;2.90;1.10;;;18.80;99.90;;;;;;5092445;28;20047;-77
2023/08/02 03:44:04;;;;;;;2.60;1.33;;;18.80;99.90;;;;;;5098608;28;20040;-75
2023/08/02 03:46:31;;;;;;;3.88;1.40;;;18.70;99.90;;;;;;5090475;28;20059;-75
2023/08/02 03:48:59;;;;;;;8.35;2.55;;;18.60;99.90;;;;;;5090915;28;20499;-76
2023/08/02 03:51:27;;;;;;;5.10;1.25;;;18.60;99.90;;;;;;5090361;28;20075;-75
2023/08/02 03:53:57;;;;;;;5.45;1.42;;;18.60;99.90;;;;;;5091429;28;20040;-76
2023/08/02 03:56:24;;;;;;;3.28;1.38;;;18.60;99.90;;;;;;5080776;28;20098;-75
2023/08/02 03:58:51;;;;;;;3.50;1.13;;;18.70;99.90;;;;;;5099009;28;20040;-76
2023/08/02 04:01:19;;;;;;;2.80;1.20;;;18.60;99.90;;;;;;5103296;28;20039;-79
2023/08/02 04:03:46;;;;;;;6.18;1.80;;;18.60;99.90;;;;;;5102587;28;20043;-77
2023/08/02 04:06:14;;;;;;;6.22;1.30;;;18.60;99.90;;;;;;5087012;28;20070;-75
2023/08/02 04:08:42;;;;;;;2.83;0.98;;;18.60;99.90;;;;;;5103470;28;20129;-78
2023/08/02 04:11:10;;;;;;;2.42;1.23;;;18.50;99.90;;;;;;5081748;28;20616;-76
2023/08/02 04:13:38;;;;;;;4.97;1.35;;;18.40;99.90;;;;;;5110410;28;20057;-78
2023/08/02 04:16:05;;;;;;;3.42;1.60;;;18.50;99.90;;;;;;5097309;28;20089;-75
2023/08/02 04:18:34;;;;;;;2.97;1.50;;;18.50;99.90;;;;;;5101475;28;20036;-73
2023/08/02 04:21:01;;;;;;;4.35;1.35;;;18.60;99.90;;;;;;5099007;28;20478;-74
2023/08/02 04:23:28;;;;;;;6.60;1.60;;;18.80;99.90;;;;;;5100387;28;20127;-76
2023/08/02 04:25:56;;;;;;;2.55;1.13;;;18.90;99.90;;;;;;5099552;28;20043;-79
2023/08/02 04:28:24;;;;;;;4.53;1.65;;;18.90;99.90;;;;;;5102630;28;20051;-77
2023/08/02 04:30:52;;;;;;;3.78;1.38;;;18.90;99.90;;;;;;5099094;28;20048;-78
2023/08/02 04:33:20;;;;;;;4.40;1.70;;;18.90;99.90;;;;;;5099508;28;20036;-76
2023/08/02 04:35:47;;;;;;;4.97;2.78;;;19.00;99.90;;;;;;5119271;28;20057;-79
2023/08/02 04:38:14;;;;;;;4.75;2.75;;;18.80;99.90;;;;;;5097149;28;20471;-76
2023/08/02 04:40:42;;;;;;;5.05;2.90;;;18.60;99.90;;;;;;5102583;28;20139;-77
2023/08/02 04:43:09;;;;;;;3.40;1.80;;;18.70;99.90;;;;;;5101587;28;20045;-76
2023/08/02 04:45:38;;;;;;;2.80;1.50;;;18.80;99.90;;;;;;5101958;28;20032;-75
2023/08/02 04:48:05;;;;;;;4.68;1.80;;;18.80;99.90;;;;;;5101807;28;20036;-75
2023/08/02 04:50:34;;;;;;;6.10;2.75;;;18.70;99.90;;;;;;5101861;28;20044;-76
2023/08/02 04:53:02;;;;;;;10.18;5.07;;;18.90;99.90;;;;;;5101082;28;20385;-74
2023/08/02 04:55:29;;;;;;;7.70;4.35;;;19.00;99.90;;;;;;5101653;28;20562;-78
2023/08/02 04:57:56;;;;;;;6.53;3.72;;;19.10;99.90;;;;;;5097676;28;20449;-76
2023/08/02 05:00:25;;;;;;;7.97;3.88;;;19.10;99.90;;;;;;5100554;28;20059;-80
2023/08/02 05:02:54;;;;;;;7.55;3.22;;;19.10;99.90;;;;;;5098394;28;20058;-75
2023/08/02 05:05:22;;;;;;;5.07;3.03;;;19.10;99.90;;;;;;5101494;28;20107;-75
2023/08/02 05:07:49;;;;;;;6.72;2.45;;;19.10;99.90;;;;;;5102253;28;20031;-74
2023/08/02 05:10:17;;;;;;;5.38;2.50;;;19.00;99.90;;;;;;5105088;28;20051;-77
2023/08/02 05:12:44;;;;;;;3.78;2.08;;;18.70;99.90;;;;;;5104644;28;20521;-77
2023/08/02 05:15:11;;;;;;;8.45;2.83;;;18.50;99.90;;;;;;5100883;28;20048;-76
2023/08/02 05:17:39;;;;;;;8.27;3.03;;;18.50;99.90;;;;;;5099246;28;20523;-78
2023/08/02 05:20:09;;;;;;;5.32;2.47;;;18.50;99.90;;;;;;5099700;28;20051;-74
2023/08/02 05:22:36;;;;;;;5.55;2.70;;;18.50;99.90;;;;;;5099380;28;20040;-76
2023/08/02 05:25:04;;;;;;;7.18;2.60;;;18.50;99.90;;;;;;5098738;28;20479;-77
2023/08/02 05:27:31;;;;;;;4.53;2.38;;;18.40;99.90;;;;;;5097719;28;20048;-78
2023/08/02 05:29:59;;;;;;;4.15;2.25;;;18.40;99.90;;;;;;5102677;28;20402;-77
2023/08/02 05:32:26;;;;;;;12.38;6.80;;;18.40;99.90;;;;;;5101358;28;20459;-77
2023/08/02 05:34:53;;;;;;;10.30;4.82;;;18.50;99.90;;;;;;5100544;28;20126;-76
2023/08/02 05:37:22;;;;;;;6.93;4.80;;;18.80;99.90;;;;;;5099617;28;20043;-76
2023/08/02 05:39:50;;;;;;;5.65;3.35;;;19.00;99.90;;;;;;5098903;28;20052;-76
2023/08/02 05:42:17;;;;;;;6.93;3.20;;;19.20;99.90;;;;;;5084009;28;20043;-75
2023/08/02 05:44:44;;;;;;;12.57;10.27;;;19.40;99.90;;;;;;5104110;28;20387;-76
2023/08/02 05:47:11;;;;;;;8.82;4.80;;;19.80;99.90;;;;;;5102032;28;20116;-76
2023/08/02 05:49:39;;;;;;;11.80;5.72;;;19.80;99.90;;;;;;5104353;28;20347;-76
2023/08/02 05:52:07;;;;;;;10.02;7.07;;;20.00;99.90;;;;;;5104893;28;20071;-76
2023/08/02 05:54:36;;;;;;;9.05;6.03;;;20.40;99.90;;;;;;5102590;28;20054;-77
2023/08/02 05:57:03;;;;;;;11.00;7.90;;;20.90;99.90;;;;;;5105581;28;20040;-77
2023/08/02 05:59:31;;;;;;;9.18;3.13;;;21.60;99.90;;;;;;5103152;28;20067;-78
2023/08/02 06:01:58;;;;;;;7.40;3.35;;;21.70;99.90;;;;;;5086146;28;20055;-77
2023/08/02 06:04:27;;;;;;;8.15;3.05;;;21.70;99.90;;;;;;5103927;28;20118;-75
2023/08/02 06:06:55;;;;;;;13.93;9.98;;;21.60;99.90;;;;;;5105089;28;20055;-75
2023/08/02 06:09:22;;;;;;;9.93;5.00;;;21.70;99.90;;;;;;5112769;28;20048;-76
2023/08/02 06:11:51;;;;;;;10.25;5.07;;;21.90;99.90;;;;;;5116264;28;20044;-76
2023/08/02 06:14:18;;;;;;;8.43;3.97;;;22.00;99.90;;;;;;5123383;28;20031;-77
2023/08/02 06:16:46;;;;;;;8.52;3.30;;;21.90;99.90;;;;;;5126965;28;20039;-76
2023/08/02 06:19:13;;;;;;;7.10;2.85;;;21.80;99.90;;;;;;5107022;28;20064;-77
2023/08/02 06:21:40;;;;;;;7.93;3.22;;;21.40;99.90;;;;;;5111530;28;20031;-75
2023/08/02 06:24:08;;;;;;;8.52;3.35;;;21.20;99.90;;;;;;5099326;28;20052;-76
2023/08/02 06:26:36;;;;;;;8.30;4.53;;;21.20;99.90;;;;;;5115397;28;20061;-78
2023/08/02 06:29:06;;;;;;;8.85;3.17;;;21.30;99.90;;;;;;5119049;28;20055;-75
2023/08/02 06:31:33;;;;;;;8.30;3.97;;;21.30;99.90;;;;;;5111078;28;20036;-76
2023/08/02 06:34:01;;;;;;;13.30;6.97;;;21.50;99.90;;;;;;5116735;28;20541;-75
2023/08/02 06:36:28;;;;;;;6.95;3.45;;;21.70;99.90;;;;;;5109557;28;20040;-74
2023/08/02 06:38:55;;;;;;;7.75;3.95;;;21.80;99.90;;;;;;5106732;28;20148;-76
2023/08/02 06:41:23;;;;;;;16.83;11.98;;;21.90;99.90;;;;;;5105860;28;20097;-76
2023/08/02 06:43:50;;;;;;;7.20;2.67;;;21.90;99.90;;;;;;5100086;28;20048;-76
2023/08/02 06:46:19;;;;;;;2.63;1.70;;;21.70;99.90;;;;;;5083986;28;20047;-76
2023/08/02 06:48:46;;;;;;;6.15;3.25;;;21.20;99.90;;;;;;5104144;28;20089;-78
2023/08/02 06:51:14;;;;;;;19.13;12.82;;;20.90;99.90;;;;;;5106224;28;20039;-77
2023/08/02 06:53:47;;;;;;;6.05;4.10;;;20.70;99.90;;;;;;5102831;28;20039;-77
2023/08/02 06:56:16;;;;;;;4.95;3.10;;;20.60;99.90;;;;;;5102803;28;20122;-77
2023/08/02 06:58:44;;;;;;;6.40;3.50;;;20.50;99.90;;;;;;5091071;28;20057;-76
2023/08/02 07:01:17;;;;;;;5.85;2.65;;;20.50;99.90;;;;;;5082865;28;20040;-77
2023/08/02 07:03:47;;;;;;;3.88;2.13;;;20.50;99.90;;;;;;5083510;28;20430;-77
2023/08/02 07:06:16;;;;;;;7.15;5.35;;;20.40;99.90;;;;;;5080639;28;20048;-76
2023/08/02 07:08:44;;;;;;;5.65;3.67;;;20.40;99.90;;;;;;5061542;28;20037;-77
2023/08/02 07:11:11;;;;;;;5.82;3.95;;;20.50;99.90;;;;;;5084831;28;20255;-75
2023/08/02 07:13:43;;;;;;;7.70;5.35;;;20.80;99.90;;;;;;5082876;28;20041;-76
2023/08/02 07:16:10;;;;;;;7.00;6.10;;;20.90;99.90;;;;;;5083312;28;20071;-77
2023/08/02 07:18:38;;;;;;;3.70;2.35;;;21.20;99.90;;;;;;5070407;28;20693;-77
2023/08/02 07:21:07;;;;;;;2.97;1.60;;;21.40;99.90;;;;;;5082785;28;20521;-75
2023/08/02 07:23:35;;;;;;;5.80;1.85;;;21.40;99.90;;;;;;5078104;28;20064;-75
2023/08/02 07:26:03;;;;;;;3.67;2.05;;;21.30;99.90;;;;;;5080422;28;20064;-75
2023/08/02 07:28:30;;;;;;;2.92;1.67;;;21.20;99.90;;;;;;5065907;28;20041;-76
2023/08/02 07:31:07;;;;;;;3.88;1.55;;;21.20;99.90;;;;;;5082077;28;20060;-78
2023/08/02 07:33:36;;;;;;;5.82;2.55;;;21.20;99.90;;;;;;5081318;28;20111;-77
2023/08/02 07:36:04;;;;;;;4.57;3.28;;;21.20;99.90;;;;;;5077637;28;20052;-78
2023/08/02 07:38:33;;;;;;;6.47;4.47;;;21.20;99.90;;;;;;5079358;28;20048;-77
2023/08/02 07:41:05;;;;;;;5.63;4.60;;;21.30;99.90;;;;;;5083127;28;20052;-77
2023/08/02 07:43:32;;;;;;;4.30;3.08;;;21.30;99.90;;;;;;5079533;28;20060;-79
2023/08/02 07:45:59;;;;;;;5.75;3.35;;;21.30;99.90;;;;;;5081413;28;20033;-75
2023/08/02 07:48:27;;;;;;;5.28;3.60;;;21.40;99.90;;;;;;5060874;28;20527;-78
2023/08/02 07:50:54;;;;;;;4.25;2.63;;;21.60;99.90;;;;;;5079990;28;20100;-80
2023/08/02 07:53:21;;;;;;;3.10;1.63;;;21.60;99.90;;;;;;5080428;28;20093;-76
2023/08/02 07:55:59;;;;;;;5.22;3.83;;;21.50;99.90;;;;;;5078099;28;20585;-77
2023/08/02 07:58:27;;;;;;;4.68;2.80;;;21.40;99.90;;;;;;5089130;28;20048;-75
2023/08/02 08:00:54;;;;;;;6.78;2.78;;;21.50;99.90;;;;;;5095953;28;20107;-77
2023/08/02 08:03:21;;;;;;;3.88;2.60;;;21.60;99.90;;;;;;5099514;28;20446;-78
2023/08/02 08:05:49;;;;;;;5.75;3.15;;;21.50;99.90;;;;;;5090790;28;20109;-78
2023/08/02 08:08:16;;;;;;;6.63;3.90;;;21.50;99.90;;;;;;5089733;28;20044;-76
2023/08/02 08:10:49;;;;;;;6.07;3.20;;;21.40;99.90;;;;;;5089723;28;20499;-76
2023/08/02 08:13:18;;;;;;;3.60;2.22;;;21.50;99.90;;;;;;5089479;28;20498;-76
2023/08/02 08:15:46;;;;;;;4.97;3.55;;;21.50;99.90;;;;;;5088543;28;20044;-77
2023/08/02 08:18:13;;;;;;;5.35;2.80;;;21.70;99.90;;;;;;5088537;28;20127;-75
2023/08/02 08:20:41;;;;;;;7.05;3.40;;;21.90;99.90;;;;;;5071603;28;20127;-77
2023/08/02 08:23:08;;;;;;;5.05;3.25;;;22.00;99.90;;;;;;5088067;28;20393;-75
2023/08/02 08:25:35;;;;;;;5.45;2.90;;;22.10;99.90;;;;;;5070421;28;20040;-75
2023/08/02 08:28:03;;;;;;;5.05;3.38;;;22.30;99.90;;;;;;5088862;28;20093;-77
2023/08/02 08:30:31;;;;;;;4.78;3.35;;;22.40;99.90;;;;;;5087748;28;20064;-76
2023/08/02 08:32:59;;;;;;;6.28;3.10;;;22.40;99.90;;;;;;5069948;28;20032;-77
2023/08/02 08:35:26;;;;;;;5.63;2.63;;;22.40;99.90;;;;;;5089015;28;20039;-74
2023/08/02 08:37:54;;;;;;;7.15;4.65;;;22.30;99.90;;;;;;5071494;28;20095;-76
2023/08/02 08:40:21;;;;;;;7.85;3.85;;;22.10;99.90;;;;;;5092126;28;20257;-78
2023/08/02 08:42:50;;;;;;;8.50;2.95;;;22.10;99.90;;;;;;5090475;28;20050;-76
2023/08/02 08:45:19;;;;;;;7.30;4.50;;;22.20;99.90;;;;;;5074458;28;20093;-76
2023/08/02 08:47:49;;;;;;;5.55;3.15;;;22.20;99.90;;;;;;5075626;28;20077;-77
2023/08/02 08:50:18;;;;;;;4.22;2.17;;;22.30;99.90;;;;;;5088937;28;20036;-75
2023/08/02 08:52:47;;;;;;;2.75;1.98;;;22.30;99.90;;;;;;5086066;28;20380;-75
2023/08/02 08:55:17;;;;;;;4.10;1.90;;;22.30;99.90;;;;;;5087192;28;20089;-76
2023/08/02 09:00:12;;;;;;;7.07;4.40;;;22.10;99.90;;;;;;5079488;28;20062;-84
2023/08/02 09:02:40;;;;;;;5.22;2.30;;;22.20;99.90;;;;;;5080060;28;20032;-85
2023/08/02 09:05:09;;;;;;;5.97;2.35;;;22.40;99.90;;;;;;5063529;28;20039;-85
2023/08/02 09:07:37;;;;;;;4.93;2.80;;;22.80;99.90;;;;;;5061041;28;20029;-84
2023/08/02 09:10:04;;;;;;;5.32;4.07;;;23.20;99.90;;;;;;5071847;28;20050;-88
2023/08/02 09:12:43;;;;;;;5.38;3.90;;;23.30;99.90;;;;;;5088231;28;20048;-84
2023/08/02 09:15:14;;;;;;;6.30;4.50;;;23.80;99.90;;;;;;5106526;28;20091;-84
2023/08/02 09:17:50;;;;;;;4.97;3.47;;;24.10;99.90;;;;;;5078604;28;20060;-84
2023/08/02 09:20:19;;;;;;;;;;;24.30;99.90;;;;;;5067984;28;20041;-84
2023/08/02 09:22:46;;;;;;;5.88;3.60;;;24.00;99.90;;;;;;5087117;28;20446;-84
2023/08/02 09:25:22;;;;;;;11.88;5.53;;;24.30;99.90;;;;;;5089226;28;20502;-84
2023/08/02 09:27:51;;;;;;;5.68;4.15;;;24.70;99.90;;;;;;5064735;28;20061;-86
2023/08/02 09:30:27;;;;;;;4.07;2.50;;;25.10;99.90;;;;;;5065302;28;20044;-82
2023/08/02 09:33:06;;;;;;;3.45;2.00;;;25.20;99.90;;;;;;5084579;28;20398;-84
2023/08/02 09:35:50;;;;;;;3.30;2.20;;;25.10;99.90;;;;;;5086230;28;20045;-85
2023/08/02 09:38:17;;;;;;;3.55;1.95;;;24.80;99.90;;;;;;5082747;28;20041;-83
2023/08/02 09:40:47;;;;;;;3.88;2.33;;;25.40;99.90;;;;;;5083702;28;20040;-84
2023/08/02 09:43:16;;;;;;;2.80;1.70;;;25.40;99.90;;;;;;5084255;28;20039;-83
2023/08/02 09:45:45;;;;;;;5.10;2.00;;;25.70;99.90;;;;;;5083348;28;20403;-84
2023/08/02 09:48:14;;;;;;;3.28;1.83;;;25.90;99.90;;;;;;5067046;28;20050;-86
2023/08/02 09:50:57;;;;;;;6.28;4.43;;;25.50;99.90;;;;;;5083278;28;20040;-86
2023/08/02 09:53:26;;;;;;;5.72;2.17;;;25.30;99.90;;;;;;5063887;28;20044;-84
2023/08/02 09:55:56;;;;;;;3.55;2.13;;;25.50;99.90;;;;;;5082663;28;20064;-84
2023/08/02 09:58:27;;;;;;;5.95;3.00;;;25.30;99.90;;;;;;5074781;28;20078;-83
2023/08/02 10:00:55;;;;;;;2.75;1.88;;;25.70;99.90;;;;;;5085615;28;20495;-83
2023/08/02 10:03:26;;;;;;;3.03;2.00;;;26.10;99.90;;;;;;5080002;28;20036;-81
2023/08/02 10:05:58;;;;;;;8.27;5.72;;;26.50;99.90;;;;;;5062821;28;20094;-81
2023/08/02 10:08:31;;;;;;;3.75;2.70;;;26.70;99.90;;;;;;5080265;28;20543;-81
2023/08/02 10:11:01;;;;;;;3.00;1.70;;;27.00;99.90;;;;;;5087552;28;20051;-81
2023/08/02 10:13:33;;;;;;;4.07;2.30;;;26.60;99.90;;;;;;5095701;28;20036;-81
2023/08/02 10:16:03;;;;;;;4.30;2.88;;;26.40;99.90;;;;;;5094039;28;20048;-81
2023/08/02 10:18:32;;;;;;;4.90;3.28;;;26.60;99.90;;;;;;5068458;28;20131;-81
2023/08/02 10:21:02;;;;;;;6.20;4.97;;;26.50;99.90;;;;;;5075302;28;20033;-82
2023/08/02 10:23:31;;;;;;;3.40;2.45;;;26.60;99.90;;;;;;5098852;28;20041;-81
2023/08/02 10:25:58;;;;;;;3.45;2.47;;;27.00;99.90;;;;;;5086730;28;20040;-80
2023/08/02 10:28:26;;;;;;;3.67;2.05;;;26.80;99.90;;;;;;5083203;28;20037;-79
2023/08/02 10:30:53;;;;;;;4.60;3.80;;;26.80;99.90;;;;;;5079057;28;20174;-80
2023/08/02 10:33:22;;;;;;;3.13;2.17;;;27.00;99.90;;;;;;5081809;28;20043;-81
2023/08/02 10:36:02;;;;;;;3.65;2.03;;;26.60;99.90;;;;;;5081377;28;20036;-80
2023/08/02 10:38:47;;;;;;;2.88;2.13;;;26.90;99.90;;;;;;5063337;28;20048;-80
2023/08/02 10:41:16;;;;;;;5.03;1.87;;;27.40;99.90;;;;;;5081658;28;20036;-81
2023/08/02 10:44:20;;;;;;;3.55;2.70;;;27.50;99.90;;;;;;5080371;28;20047;-82
2023/08/02 10:46:49;;;;;;;2.95;2.00;;;27.70;99.90;;;;;;5081061;28;20039;-81
2023/08/02 10:49:39;;;;;;;4.35;2.15;;;27.80;99.90;;;;;;5079790;28;20037;-81
2023/08/02 10:52:31;;;;;;;4.85;2.80;;;27.60;99.90;;;;;;5081060;28;20051;-81
2023/08/02 10:55:11;;;;;;;6.53;3.90;;;27.60;99.90;;;;;;5080732;28;20471;-81
2023/08/02 10:57:40;;;;;;;3.75;2.00;;;27.40;99.90;;;;;;5081606;28;20129;-81
2023/08/02 11:00:18;;;;;;;2.30;1.70;;;27.30;99.90;;;;;;5063119;28;20521;-81
2023/08/02 11:02:47;;;;;;;3.45;2.30;;;27.40;99.90;;;;;;5079903;28;20040;-82
2023/08/02 11:05:18;;;;;;;3.15;1.60;;;27.30;99.90;;;;;;5092893;28;20043;-81
2023/08/02 11:08:00;;;;;;;2.45;1.58;;;27.40;99.90;;;;;;5096257;28;20127;-82
2023/08/02 11:10:27;;;;;;;4.65;2.95;;;27.20;99.90;;;;;;5070053;28;20036;-81
2023/08/02 11:12:56;;;;;;;3.85;1.75;;;27.00;99.90;;;;;;5062265;28;20048;-80
2023/08/02 11:15:24;;;;;;;3.03;1.75;;;26.80;99.90;;;;;;5082022;28;20044;-80
2023/08/02 11:17:56;;;;;;;3.20;1.88;;;26.60;99.90;;;;;;5080715;28;20036;-82
2023/08/02 11:20:28;;;;;;;3.50;1.88;;;26.30;99.90;;;;;;5081115;28;20041;-82
2023/08/02 11:22:55;;;;;;;2.83;1.75;;;26.30;99.90;;;;;;5083213;28;20139;-82
2023/08/02 11:25:24;;;;;;;2.88;1.98;;;26.40;99.90;;;;;;5077074;28;20052;-83
2023/08/02 11:28:02;;;;;;;3.00;1.90;;;26.40;99.90;;;;;;5060700;28;20056;-84
2023/08/02 11:30:29;;;;;;;2.47;1.80;;;26.40;99.90;;;;;;5079635;28;20033;-83
2023/08/02 11:32:57;;;;;;;2.60;1.67;;;26.30;99.90;;;;;;5080317;28;20060;-82
2023/08/02 11:35:25;;;;;;;3.80;2.38;;;26.30;99.90;;;;;;5080721;28;20039;-82
2023/08/02 11:37:52;;;;;;;5.88;2.53;;;26.20;99.90;;;;;;5080552;28;20508;-83
2023/08/02 11:40:20;;;;;;;9.15;6.57;;;26.30;99.90;;;;;;5064069;28;20040;-82
2023/08/02 11:42:53;;;;;;;6.45;3.13;;;26.30;99.90;;;;;;5062825;28;20051;-82
2023/08/02 11:45:30;;;;;;;4.15;2.63;;;26.30;99.90;;;;;;5060409;28;20067;-83
2023/08/02 11:47:58;;;;;;;3.33;2.30;;;26.30;99.90;;;;;;5082011;28;20047;-82
2023/08/02 11:50:26;;;;;;;3.90;2.30;;;26.30;99.90;;;;;;5085547;28;20047;-81
2023/08/02 11:53:03;;;;;;;3.53;2.17;;;26.30;99.90;;;;;;5087842;28;20040;-83
2023/08/02 11:55:31;;;;;;;7.88;4.95;;;26.20;99.90;;;;;;5059106;28;20043;-82
2023/08/02 11:58:00;;;;;;;2.90;1.50;;;26.10;99.90;;;;;;5064464;28;20103;-82
2023/08/02 12:00:31;;;;;;;2.95;1.90;;;26.20;99.90;;;;;;5087966;28;20446;-83
2023/08/02 12:03:09;;;;;;;2.90;1.90;;;26.10;99.90;;;;;;5066219;28;20063;-86
2023/08/02 12:05:37;;;;;;;2.72;1.95;;;26.20;99.90;;;;;;5092752;28;20041;-81
2023/08/02 12:08:11;;;;;;;3.40;1.95;;;26.30;99.90;;;;;;5089395;28;20106;-80
2023/08/02 12:10:40;;;;;;;3.40;2.50;;;26.00;99.90;;;;;;5084467;28;20036;-83
2023/08/02 12:13:17;;;;;;;3.42;2.45;;;26.00;99.90;;;;;;5077707;28;20689;-81
2023/08/02 12:16:01;;;;;;;4.03;2.80;;;25.90;99.90;;;;;;5062425;28;20048;-82
2023/08/02 12:18:29;;;;;;;6.30;3.97;;;26.00;99.90;;;;;;5083268;28;20044;-82
2023/08/02 12:20:56;;;;;;;6.50;4.00;;;26.20;99.90;;;;;;5081292;28;20127;-82
2023/08/02 12:23:33;;;;;;;5.50;3.85;;;26.30;99.90;;;;;;5080449;28;20040;-81
2023/08/02 12:26:01;;;;;;;5.82;3.33;;;26.40;99.90;;;;;;5078775;28;20183;-83
2023/08/02 12:28:46;;;;;;;3.92;3.13;;;26.50;99.90;;;;;;5062706;28;20174;-83
2023/08/02 12:31:14;;;;;;;3.53;2.72;;;26.60;99.90;;;;;;5078735;28;20044;-82
2023/08/02 12:33:45;;;;;;;6.07;4.70;;;26.60;99.90;;;;;;5079423;28;20147;-82
2023/08/02 12:36:23;;;;;;;4.70;3.80;;;26.50;99.90;;;;;;5062156;28;20086;-82
2023/08/02 12:38:51;;;;;;;7.22;2.58;;;26.40;99.90;;;;;;5079207;28;20048;-83
2023/08/02 12:41:18;;;;;;;4.90;3.15;;;26.60;99.90;;;;;;5079471;28;20063;-83
2023/08/02 12:43:52;;;;;;;5.57;4.30;;;26.40;99.90;;;;;;5077944;28;20036;-82
2023/08/02 12:46:19;;;;;;;19.77;16.30;;;26.40;99.90;;;;;;5078517;28;20110;-81
2023/08/02 12:48:47;;;;;;;4.25;2.35;;;26.60;99.90;;;;;;5079935;28;20068;-82
2023/08/02 12:51:15;;;;;;;5.38;3.00;;;26.50;99.90;;;;;;5064760;28;20068;-81
2023/08/02 12:53:42;;;;;;;6.85;4.72;;;26.30;99.90;;;;;;5083068;28;20045;-81
2023/08/02 12:56:11;;;;;;;7.20;5.45;;;26.40;99.90;;;;;;5073875;28;20064;-82
2023/08/02 12:58:38;;;;;;;4.80;3.40;;;26.50;99.90;;;;;;5081599;28;20041;-83
2023/08/02 13:01:07;;;;;;;6.28;3.17;;;26.40;99.90;;;;;;5080440;28;20036;-81